sensor_id;sensor_type;location;lat;lon;timestamp;pressure;altitude;pressure_sealevel;temperature;humidity
43770;BME280;6597;52.218;9.882;2022-12-07T00:01:04;100610.47;;;2.73;100.00
43770;BME280;6597;52.218;9.882;2022-12-07T00:03:32;100605.25;;;2.79;100.00
43770;BME280;6597;52.218;9.882;2022-12-07T00:05:59;100603.50;;;2.81;100.00
43770;BME280;6597;52.218;9.882;2022-12-07T00:08:26;100602.66;;;2.79;100.00
43770;BME280;6597;52.218;9.882;2022-12-07T00:10:53;100601.78;;;2.81;100.00
43770;BME280;6597;52.218;9.882;2022-12-07T00:13:19;100598.31;;;2.84;100.00
43770;BME280;6597;52.218;9.882;2022-12-07T00:15:46;100594.81;;;2.87;100.00
43770;BME280;6597;52.218;9.882;2022-12-07T00:18:12;100593.94;;;2.89;100.00
43770;BME280;6597;52.218;9.882;2022-12-07T00:20:40;100587.03;;;2.90;100.00
43770;BME280;6597;52.218;9.882;2022-12-07T00:23:07;100586.16;;;2.91;100.00
43770;BME280;6597;52.218;9.882;2022-12-07T00:25:33;100589.63;;;2.90;100.00
43770;BME280;6597;52.218;9.882;2022-12-07T00:28:00;100587.91;;;2.89;100.00
43770;BME280;6597;52.218;9.882;2022-12-07T00:30:26;100572.34;;;2.90;100.00
43770;BME280;6597;52.218;9.882;2022-12-07T00:32:53;100584.44;;;2.93;100.00
43770;BME280;6597;52.218;9.882;2022-12-07T00:35:19;100579.25;;;2.96;100.00
43770;BME280;6597;52.218;9.882;2022-12-07T00:37:47;100569.72;;;2.92;100.00
43770;BME280;6597;52.218;9.882;2022-12-07T00:40:14;100574.91;;;2.92;100.00
43770;BME280;6597;52.218;9.882;2022-12-07T00:42:41;100566.28;;;2.90;100.00
43770;BME280;6597;52.218;9.882;2022-12-07T00:45:08;100568.88;;;2.90;100.00
43770;BME280;6597;52.218;9.882;2022-12-07T00:47:35;100569.75;;;2.95;100.00
43770;BME280;6597;52.218;9.882;2022-12-07T00:50:01;100554.19;;;2.92;100.00
43770;BME280;6597;52.218;9.882;2022-12-07T00:52:28;100557.63;;;2.95;100.00
43770;BME280;6597;52.218;9.882;2022-12-07T00:54:56;100554.19;;;2.95;100.00
43770;BME280;6597;52.218;9.882;2022-12-07T00:57:22;100549.00;;;2.95;100.00
43770;BME280;6597;52.218;9.882;2022-12-07T00:59:49;100543.81;;;2.92;100.00
43770;BME280;6597;52.218;9.882;2022-12-07T01:02:15;100549.00;;;2.93;100.00
43770;BME280;6597;52.218;9.882;2022-12-07T01:04:42;100538.63;;;2.92;100.00
43770;BME280;6597;52.218;9.882;2022-12-07T01:07:08;100540.38;;;2.90;100.00
43770;BME280;6597;52.218;9.882;2022-12-07T01:09:35;100544.69;;;2.88;100.00
43770;BME280;6597;52.218;9.882;2022-12-07T01:12:03;100539.50;;;2.89;100.00
43770;BME280;6597;52.218;9.882;2022-12-07T01:14:30;100541.22;;;2.93;100.00
43770;BME280;6597;52.218;9.882;2022-12-07T01:16:57;100536.91;;;2.94;100.00
43770;BME280;6597;52.218;9.882;2022-12-07T01:19:23;100536.88;;;2.97;100.00
43770;BME280;6597;52.218;9.882;2022-12-07T01:21:50;100538.63;;;2.96;100.00
43770;BME280;6597;52.218;9.882;2022-12-07T01:24:16;100549.00;;;2.95;100.00
43770;BME280;6597;52.218;9.882;2022-12-07T01:26:43;100539.47;;;2.97;100.00
43770;BME280;6597;52.218;9.882;2022-12-07T01:29:11;100543.75;;;3.01;100.00
43770;BME280;6597;52.218;9.882;2022-12-07T01:31:37;100542.00;;;3.03;100.00
43770;BME280;6597;52.218;9.882;2022-12-07T01:34:04;100542.88;;;3.03;100.00
43770;BME280;6597;52.218;9.882;2022-12-07T01:36:31;100534.22;;;3.06;100.00
43770;BME280;6597;52.218;9.882;2022-12-07T01:39:01;100524.69;;;3.06;100.00
43770;BME280;6597;52.218;9.882;2022-12-07T01:41:29;100526.41;;;3.07;100.00
43770;BME280;6597;52.218;9.882;2022-12-07T01:44:20;100534.16;;;3.12;100.00
43770;BME280;6597;52.218;9.882;2022-12-07T01:46:48;100535.88;;;3.13;100.00
43770;BME280;6597;52.218;9.882;2022-12-07T01:49:18;100534.97;;;3.17;100.00
43770;BME280;6597;52.218;9.882;2022-12-07T01:51:47;100512.59;;;3.07;100.00
43770;BME280;6597;52.218;9.882;2022-12-07T01:54:15;100527.22;;;3.12;100.00
43770;BME280;6597;52.218;9.882;2022-12-07T01:56:45;100528.94;;;3.13;100.00
43770;BME280;6597;52.218;9.882;2022-12-07T01:59:13;100530.69;;;3.13;100.00
43770;BME280;6597;52.218;9.882;2022-12-07T02:01:42;100526.41;;;3.09;100.00
43770;BME280;6597;52.218;9.882;2022-12-07T02:04:08;100528.94;;;3.15;100.00
43770;BME280;6597;52.218;9.882;2022-12-07T02:06:37;100525.47;;;3.15;100.00
43770;BME280;6597;52.218;9.882;2022-12-07T02:09:04;100520.28;;;3.15;100.00
43770;BME280;6597;52.218;9.882;2022-12-07T02:11:31;100516.00;;;3.12;100.00
43770;BME280;6597;52.218;9.882;2022-12-07T02:13:57;100511.69;;;3.11;100.00
43770;BME280;6597;52.218;9.882;2022-12-07T02:16:29;100512.56;;;3.08;100.00
43770;BME280;6597;52.218;9.882;2022-12-07T02:22:33;100514.34;;;3.05;100.00
43770;BME280;6597;52.218;9.882;2022-12-07T02:25:08;100513.47;;;3.06;100.00
43770;BME280;6597;52.218;9.882;2022-12-07T02:27:45;100510.00;;;3.05;100.00
43770;BME280;6597;52.218;9.882;2022-12-07T02:30:15;100510.03;;;3.04;100.00
43770;BME280;6597;52.218;9.882;2022-12-07T02:32:48;100499.66;;;3.04;100.00
43770;BME280;6597;52.218;9.882;2022-12-07T02:35:19;100504.03;;;2.99;100.00
43770;BME280;6597;52.218;9.882;2022-12-07T02:37:56;100493.69;;;2.94;100.00
43770;BME280;6597;52.218;9.882;2022-12-07T02:40:28;100492.00;;;2.86;100.00
43770;BME280;6597;52.218;9.882;2022-12-07T02:43:00;100501.53;;;2.84;100.00
43770;BME280;6597;52.218;9.882;2022-12-07T02:45:30;100490.38;;;2.75;100.00
43770;BME280;6597;52.218;9.882;2022-12-07T02:47:59;100494.72;;;2.70;100.00
43770;BME280;6597;52.218;9.882;2022-12-07T02:50:26;100495.63;;;2.68;100.00
43770;BME280;6597;52.218;9.882;2022-12-07T02:52:53;100490.47;;;2.63;100.00
43770;BME280;6597;52.218;9.882;2022-12-07T02:55:26;100489.59;;;2.58;100.00
43770;BME280;6597;52.218;9.882;2022-12-07T02:58:09;100481.88;;;2.55;100.00
43770;BME280;6597;52.218;9.882;2022-12-07T03:00:45;100491.41;;;2.47;100.00
43770;BME280;6597;52.218;9.882;2022-12-07T03:03:15;100488.00;;;2.40;100.00
43770;BME280;6597;52.218;9.882;2022-12-07T03:06:04;100475.13;;;2.33;100.00
43770;BME280;6597;52.218;9.882;2022-12-07T03:08:38;100479.44;;;2.31;100.00
43770;BME280;6597;52.218;9.882;2022-12-07T03:11:09;100480.31;;;2.30;100.00
43770;BME280;6597;52.218;9.882;2022-12-07T03:13:41;100484.66;;;2.28;100.00
43770;BME280;6597;52.218;9.882;2022-12-07T03:16:15;100482.03;;;2.25;100.00
43770;BME280;6597;52.218;9.882;2022-12-07T03:18:46;100480.34;;;2.21;100.00
43770;BME280;6597;52.218;9.882;2022-12-07T03:21:16;100482.09;;;2.18;100.00
43770;BME280;6597;52.218;9.882;2022-12-07T03:23:46;100484.69;;;2.14;100.00
43770;BME280;6597;52.218;9.882;2022-12-07T03:26:17;100482.13;;;2.12;100.00
43770;BME280;6597;52.218;9.882;2022-12-07T03:28:50;100476.09;;;2.10;100.00
43770;BME280;6597;52.218;9.882;2022-12-07T03:31:22;100480.41;;;2.08;100.00
43770;BME280;6597;52.218;9.882;2022-12-07T03:33:56;100468.38;;;2.01;100.00
43770;BME280;6597;52.218;9.882;2022-12-07T03:36:29;100475.28;;;2.04;100.00
43770;BME280;6597;52.218;9.882;2022-12-07T03:39:02;100470.97;;;2.03;100.00
43770;BME280;6597;52.218;9.882;2022-12-07T03:41:31;100470.09;;;2.04;100.00
43770;BME280;6597;52.218;9.882;2022-12-07T03:44:00;100471.81;;;2.03;100.00
43770;BME280;6597;52.218;9.882;2022-12-07T03:46:35;100479.59;;;2.03;100.00
43770;BME280;6597;52.218;9.882;2022-12-07T03:49:08;100466.66;;;2.03;100.00
43770;BME280;6597;52.218;9.882;2022-12-07T03:51:40;100476.97;;;2.06;100.00
43770;BME280;6597;52.218;9.882;2022-12-07T03:54:13;100469.22;;;2.05;100.00
43770;BME280;6597;52.218;9.882;2022-12-07T03:56:42;100470.94;;;2.04;100.00
43770;BME280;6597;52.218;9.882;2022-12-07T03:59:10;100474.41;;;2.03;100.00
43770;BME280;6597;52.218;9.882;2022-12-07T04:01:41;100477.00;;;2.03;100.00
43770;BME280;6597;52.218;9.882;2022-12-07T04:04:08;100470.94;;;2.07;100.00
43770;BME280;6597;52.218;9.882;2022-12-07T04:06:34;100481.28;;;2.10;100.00
43770;BME280;6597;52.218;9.882;2022-12-07T04:09:01;100472.66;;;2.10;100.00
43770;BME280;6597;52.218;9.882;2022-12-07T04:11:27;100480.41;;;2.11;100.00
43770;BME280;6597;52.218;9.882;2022-12-07T04:13:54;100473.50;;;2.10;100.00
43770;BME280;6597;52.218;9.882;2022-12-07T04:16:39;100476.13;;;2.07;100.00
43770;BME280;6597;52.218;9.882;2022-12-07T04:19:06;100479.56;;;2.06;100.00
43770;BME280;6597;52.218;9.882;2022-12-07T04:21:32;100481.28;;;2.07;100.00
43770;BME280;6597;52.218;9.882;2022-12-07T04:23:59;100476.97;;;2.09;100.00
43770;BME280;6597;52.218;9.882;2022-12-07T04:26:25;100481.25;;;2.13;100.00
43770;BME280;6597;52.218;9.882;2022-12-07T04:28:52;100473.47;;;2.18;100.00
43770;BME280;6597;52.218;9.882;2022-12-07T04:31:18;100472.56;;;2.24;100.00
43770;BME280;6597;52.218;9.882;2022-12-07T04:33:46;100481.19;;;2.29;100.00
43770;BME280;6597;52.218;9.882;2022-12-07T04:36:13;100473.38;;;2.35;100.00
43770;BME280;6597;52.218;9.882;2022-12-07T04:38:39;100471.63;;;2.37;100.00
43770;BME280;6597;52.218;9.882;2022-12-07T04:41:07;100467.31;;;2.39;100.00
43770;BME280;6597;52.218;9.882;2022-12-07T04:43:34;100474.16;;;2.44;100.00
43770;BME280;6597;52.218;9.882;2022-12-07T04:46:01;100475.88;;;2.48;100.00
43770;BME280;6597;52.218;9.882;2022-12-07T04:48:28;100476.72;;;2.50;100.00
43770;BME280;6597;52.218;9.882;2022-12-07T04:50:56;100475.00;;;2.49;100.00
43770;BME280;6597;52.218;9.882;2022-12-07T04:53:26;100475.81;;;2.55;100.00
43770;BME280;6597;52.218;9.882;2022-12-07T04:55:52;100464.59;;;2.56;100.00
43770;BME280;6597;52.218;9.882;2022-12-07T04:58:19;100460.22;;;2.59;100.00
43770;BME280;6597;52.218;9.882;2022-12-07T05:00:45;100463.72;;;2.61;100.00
43770;BME280;6597;52.218;9.882;2022-12-07T05:03:12;100458.47;;;2.67;100.00
43770;BME280;6597;52.218;9.882;2022-12-07T05:05:40;100461.06;;;2.67;100.00
43770;BME280;6597;52.218;9.882;2022-12-07T05:08:08;100461.91;;;2.69;100.00
43770;BME280;6597;52.218;9.882;2022-12-07T05:10:34;100463.66;;;2.67;100.00
43770;BME280;6597;52.218;9.882;2022-12-07T05:13:01;100470.53;;;2.70;100.00
43770;BME280;6597;52.218;9.882;2022-12-07T05:15:27;100472.28;;;2.69;100.00
43770;BME280;6597;52.218;9.882;2022-12-07T05:17:54;100475.72;;;2.71;100.00
43770;BME280;6597;52.218;9.882;2022-12-07T05:20:20;100467.06;;;2.71;100.00
43770;BME280;6597;52.218;9.882;2022-12-07T05:22:47;100457.59;;;2.70;100.00
43770;BME280;6597;52.218;9.882;2022-12-07T05:25:15;100461.88;;;2.72;100.00
43770;BME280;6597;52.218;9.882;2022-12-07T05:27:41;100460.16;;;2.71;100.00
43770;BME280;6597;52.218;9.882;2022-12-07T05:30:08;100461.91;;;2.71;100.00
43770;BME280;6597;52.218;9.882;2022-12-07T05:32:35;100455.84;;;2.72;100.00
43770;BME280;6597;52.218;9.882;2022-12-07T05:35:02;100454.09;;;2.72;100.00
43770;BME280;6597;52.218;9.882;2022-12-07T05:37:29;100446.31;;;2.75;100.00
43770;BME280;6597;52.218;9.882;2022-12-07T05:39:55;100451.50;;;2.75;100.00
43770;BME280;6597;52.218;9.882;2022-12-07T05:42:24;100459.25;;;2.77;100.00
43770;BME280;6597;52.218;9.882;2022-12-07T05:44:50;100459.25;;;2.75;100.00
43770;BME280;6597;52.218;9.882;2022-12-07T05:47:17;100459.25;;;2.75;100.00
43770;BME280;6597;52.218;9.882;2022-12-07T05:49:43;100454.09;;;2.72;100.00
43770;BME280;6597;52.218;9.882;2022-12-07T05:52:10;100452.34;;;2.74;100.00
43770;BME280;6597;52.218;9.882;2022-12-07T05:54:36;100455.84;;;2.70;100.00
43770;BME280;6597;52.218;9.882;2022-12-07T05:57:03;100454.97;;;2.71;100.00
43770;BME280;6597;52.218;9.882;2022-12-07T05:59:31;100454.91;;;2.77;100.00
43770;BME280;6597;52.218;9.882;2022-12-07T06:01:58;100459.22;;;2.80;100.00
43770;BME280;6597;52.218;9.882;2022-12-07T06:04:27;100455.75;;;2.81;100.00
43770;BME280;6597;52.218;9.882;2022-12-07T06:06:54;100460.94;;;2.83;100.00
43770;BME280;6597;52.218;9.882;2022-12-07T06:09:22;100455.72;;;2.86;100.00
43770;BME280;6597;52.218;9.882;2022-12-07T06:11:49;100455.69;;;2.87;100.00
43770;BME280;6597;52.218;9.882;2022-12-07T06:14:34;100453.94;;;2.89;100.00
43770;BME280;6597;52.218;9.882;2022-12-07T06:17:01;100459.16;;;2.86;100.00
43770;BME280;6597;52.218;9.882;2022-12-07T06:19:28;100464.34;;;2.88;100.00
43770;BME280;6597;52.218;9.882;2022-12-07T06:21:55;100466.91;;;2.91;100.00
43770;BME280;6597;52.218;9.882;2022-12-07T06:24:21;100463.44;;;2.90;100.00
43770;BME280;6597;52.218;9.882;2022-12-07T06:26:48;100470.34;;;2.96;100.00
43770;BME280;6597;52.218;9.882;2022-12-07T06:29:16;100467.75;;;2.96;100.00
43770;BME280;6597;52.218;9.882;2022-12-07T06:31:44;100472.84;;;3.03;100.00
43770;BME280;6597;52.218;9.882;2022-12-07T06:34:13;100471.94;;;3.10;100.00
43770;BME280;6597;52.218;9.882;2022-12-07T06:36:40;100474.47;;;3.13;100.00
43770;BME280;6597;52.218;9.882;2022-12-07T06:39:08;100469.22;;;3.20;100.00
43770;BME280;6597;52.218;9.882;2022-12-07T06:41:34;100471.81;;;3.20;100.00
43770;BME280;6597;52.218;9.882;2022-12-07T06:44:01;100477.84;;;3.22;100.00
43770;BME280;6597;52.218;9.882;2022-12-07T06:46:28;100467.47;;;3.23;100.00
43770;BME280;6597;52.218;9.882;2022-12-07T06:48:56;100469.19;;;3.24;100.00
43770;BME280;6597;52.218;9.882;2022-12-07T06:51:22;100480.44;;;3.23;100.00
43770;BME280;6597;52.218;9.882;2022-12-07T06:53:49;100470.91;;;3.24;100.00
43770;BME280;6597;52.218;9.882;2022-12-07T06:56:16;100467.47;;;3.23;100.00
43770;BME280;6597;52.218;9.882;2022-12-07T06:58:43;100467.44;;;3.29;100.00
43770;BME280;6597;52.218;9.882;2022-12-07T07:01:10;100471.75;;;3.30;100.00
43770;BME280;6597;52.218;9.882;2022-12-07T07:03:36;100465.69;;;3.30;100.00
43770;BME280;6597;52.218;9.882;2022-12-07T07:06:05;100470.91;;;3.28;100.00
43770;BME280;6597;52.218;9.882;2022-12-07T07:08:32;100470.03;;;3.28;100.00
43770;BME280;6597;52.218;9.882;2022-12-07T07:10:59;100477.81;;;3.28;100.00
43770;BME280;6597;52.218;9.882;2022-12-07T07:13:26;100476.94;;;3.30;100.00
43770;BME280;6597;52.218;9.882;2022-12-07T07:15:52;100473.50;;;3.27;100.00
43770;BME280;6597;52.218;9.882;2022-12-07T07:18:19;100480.38;;;3.31;100.00
43770;BME280;6597;52.218;9.882;2022-12-07T07:20:45;100477.81;;;3.28;100.00
43770;BME280;6597;52.218;9.882;2022-12-07T07:23:13;100477.84;;;3.23;100.00
43770;BME280;6597;52.218;9.882;2022-12-07T07:25:40;100477.00;;;3.20;100.00
43770;BME280;6597;52.218;9.882;2022-12-07T07:28:06;100486.53;;;3.19;100.00
43770;BME280;6597;52.218;9.882;2022-12-07T07:30:33;100483.06;;;3.20;100.00
43770;BME280;6597;52.218;9.882;2022-12-07T07:33:01;100488.25;;;3.19;100.00
43770;BME280;6597;52.218;9.882;2022-12-07T07:35:29;100482.22;;;3.18;100.00
43770;BME280;6597;52.218;9.882;2022-12-07T07:37:55;100485.63;;;3.22;100.00
43770;BME280;6597;52.218;9.882;2022-12-07T07:40:24;100499.47;;;3.21;100.00
43770;BME280;6597;52.218;9.882;2022-12-07T07:42:52;100497.78;;;3.18;100.00
43770;BME280;6597;52.218;9.882;2022-12-07T07:45:19;100494.34;;;3.16;100.00
43770;BME280;6597;52.218;9.882;2022-12-07T07:47:46;100502.94;;;3.20;100.00
43770;BME280;6597;52.218;9.882;2022-12-07T07:50:13;100491.72;;;3.18;100.00
43770;BME280;6597;52.218;9.882;2022-12-07T07:52:40;100492.56;;;3.20;100.00
43770;BME280;6597;52.218;9.882;2022-12-07T07:55:07;100502.13;;;3.16;100.00
43770;BME280;6597;52.218;9.882;2022-12-07T07:57:35;100502.13;;;3.15;100.00
43770;BME280;6597;52.218;9.882;2022-12-07T08:00:04;100506.47;;;3.12;100.00
43770;BME280;6597;52.218;9.882;2022-12-07T08:02:37;100498.69;;;3.14;100.00
43770;BME280;6597;52.218;9.882;2022-12-07T08:05:05;100498.63;;;3.19;100.00
43770;BME280;6597;52.218;9.882;2022-12-07T08:07:31;100509.00;;;3.19;100.00
43770;BME280;6597;52.218;9.882;2022-12-07T08:09:58;100505.59;;;3.15;100.00
43770;BME280;6597;52.218;9.882;2022-12-07T08:12:25;100500.38;;;3.18;100.00
43770;BME280;6597;52.218;9.882;2022-12-07T08:14:52;100508.13;;;3.20;100.00
43770;BME280;6597;52.218;9.882;2022-12-07T08:17:19;100501.16;;;3.25;100.00
43770;BME280;6597;52.218;9.882;2022-12-07T08:19:45;100504.63;;;3.28;100.00
43770;BME280;6597;52.218;9.882;2022-12-07T08:22:12;100507.19;;;3.31;100.00
43770;BME280;6597;52.218;9.882;2022-12-07T08:24:39;100509.72;;;3.36;100.00
43770;BME280;6597;52.218;9.882;2022-12-07T08:27:05;100511.44;;;3.37;100.00
43770;BME280;6597;52.218;9.882;2022-12-07T08:29:32;100512.25;;;3.43;100.00
43770;BME280;6597;52.218;9.882;2022-12-07T08:32:00;100502.69;;;3.49;100.00
43770;BME280;6597;52.218;9.882;2022-12-07T08:34:26;100492.28;;;3.50;100.00
43770;BME280;6597;52.218;9.882;2022-12-07T08:36:53;100493.97;;;3.53;100.00
43770;BME280;6597;52.218;9.882;2022-12-07T08:39:20;100493.97;;;3.54;100.00
43770;BME280;6597;52.218;9.882;2022-12-07T08:41:46;100500.00;;;3.59;100.00
43770;BME280;6597;52.218;9.882;2022-12-07T08:44:13;100499.09;;;3.63;100.00
43770;BME280;6597;52.218;9.882;2022-12-07T08:46:42;100502.47;;;3.70;100.00
43770;BME280;6597;52.218;9.882;2022-12-07T08:49:16;100508.47;;;3.75;100.00
43770;BME280;6597;52.218;9.882;2022-12-07T08:51:44;100508.31;;;3.86;100.00
43770;BME280;6597;52.218;9.882;2022-12-07T08:54:14;100504.81;;;3.88;100.00
43770;BME280;6597;52.218;9.882;2022-12-07T08:56:41;100508.25;;;3.95;100.00
43770;BME280;6597;52.218;9.882;2022-12-07T08:59:09;100517.75;;;3.96;100.00
43770;BME280;6597;52.218;9.882;2022-12-07T09:01:36;100509.84;;;4.03;100.00
43770;BME280;6597;52.218;9.882;2022-12-07T09:04:03;100512.44;;;4.03;100.00
43770;BME280;6597;52.218;9.882;2022-12-07T09:06:31;100513.22;;;4.10;100.00
43770;BME280;6597;52.218;9.882;2022-12-07T09:08:59;100513.13;;;4.18;100.00
43770;BME280;6597;52.218;9.882;2022-12-07T09:11:27;100512.09;;;4.31;100.00
43770;BME280;6597;52.218;9.882;2022-12-07T09:13:54;100518.91;;;4.40;100.00
43770;BME280;6597;52.218;9.882;2022-12-07T09:16:20;100516.28;;;4.41;100.00
43770;BME280;6597;52.218;9.882;2022-12-07T09:18:47;100518.88;;;4.41;100.00
43770;BME280;6597;52.218;9.882;2022-12-07T09:21:13;100516.44;;;4.32;100.00
43770;BME280;6597;52.218;9.882;2022-12-07T09:23:42;100515.66;;;4.25;100.00
43770;BME280;6597;52.218;9.882;2022-12-07T09:26:09;100516.63;;;4.15;100.00
43770;BME280;6597;52.218;9.882;2022-12-07T09:28:36;100527.94;;;4.11;100.00
43770;BME280;6597;52.218;9.882;2022-12-07T09:31:02;100502.16;;;3.96;100.00
43770;BME280;6597;52.218;9.882;2022-12-07T09:33:29;100523.69;;;4.04;100.00
43770;BME280;6597;52.218;9.882;2022-12-07T09:35:56;100526.31;;;4.04;100.00
43770;BME280;6597;52.218;9.882;2022-12-07T09:38:22;100515.97;;;3.99;100.00
43770;BME280;6597;52.218;9.882;2022-12-07T09:40:54;100507.31;;;3.99;100.00
43770;BME280;6597;52.218;9.882;2022-12-07T09:43:21;100518.63;;;3.95;100.00
43770;BME280;6597;52.218;9.882;2022-12-07T09:45:51;100507.41;;;3.90;100.00
43770;BME280;6597;52.218;9.882;2022-12-07T09:48:20;100493.59;;;3.88;100.00
43770;BME280;6597;52.218;9.882;2022-12-07T09:50:48;100504.72;;;3.99;100.00
43770;BME280;6597;52.218;9.882;2022-12-07T09:53:20;100509.06;;;3.98;100.00
43770;BME280;6597;52.218;9.882;2022-12-07T09:55:48;100503.75;;;4.07;100.00
43770;BME280;6597;52.218;9.882;2022-12-07T09:58:21;100496.31;;;4.45;100.00
43770;BME280;6597;52.218;9.882;2022-12-07T10:00:50;100496.72;;;5.28;100.00
43770;BME280;6597;52.218;9.882;2022-12-07T10:03:19;100496.53;;;5.83;95.60
43770;BME280;6597;52.218;9.882;2022-12-07T10:05:48;100492.28;;;6.24;92.73
43770;BME280;6597;52.218;9.882;2022-12-07T10:08:15;100495.91;;;6.15;90.34
43770;BME280;6597;52.218;9.882;2022-12-07T10:10:43;100504.81;;;6.05;90.67
43770;BME280;6597;52.218;9.882;2022-12-07T10:13:12;100498.19;;;6.32;88.40
43770;BME280;6597;52.218;9.882;2022-12-07T10:15:51;100492.22;;;6.66;87.85
43770;BME280;6597;52.218;9.882;2022-12-07T10:18:20;100488.94;;;6.93;86.38
43770;BME280;6597;52.218;9.882;2022-12-07T10:21:04;100486.66;;;6.79;86.53
43770;BME280;6597;52.218;9.882;2022-12-07T10:23:33;100487.28;;;6.53;87.29
43770;BME280;6597;52.218;9.882;2022-12-07T10:26:20;100498.41;;;6.21;88.74
43770;BME280;6597;52.218;9.882;2022-12-07T10:28:47;100494.38;;;6.07;89.04
43770;BME280;6597;52.218;9.882;2022-12-07T10:31:19;100503.34;;;5.93;89.51
43770;BME280;6597;52.218;9.882;2022-12-07T10:33:51;100510.16;;;5.54;92.21
43770;BME280;6597;52.218;9.882;2022-12-07T10:36:21;100498.06;;;5.49;93.31
43770;BME280;6597;52.218;9.882;2022-12-07T10:38:50;100496.66;;;5.32;93.90
43770;BME280;6597;52.218;9.882;2022-12-07T10:41:17;100490.50;;;5.37;95.43
43770;BME280;6597;52.218;9.882;2022-12-07T10:43:49;100490.69;;;5.26;94.85
43770;BME280;6597;52.218;9.882;2022-12-07T10:49:55;100489.97;;;5.16;97.22
43770;BME280;6597;52.218;9.882;2022-12-07T10:52:42;100489.19;;;5.11;96.32
43770;BME280;6597;52.218;9.882;2022-12-07T10:55:18;100498.69;;;5.14;97.25
43770;BME280;6597;52.218;9.882;2022-12-07T10:57:56;100485.00;;;5.04;97.71
43770;BME280;6597;52.218;9.882;2022-12-07T11:00:31;100484.09;;;5.05;98.51
43770;BME280;6597;52.218;9.882;2022-12-07T11:03:34;100487.66;;;5.01;98.56
43770;BME280;6597;52.218;9.882;2022-12-07T11:06:10;100472.94;;;4.98;99.26
43770;BME280;6597;52.218;9.882;2022-12-07T11:08:56;100467.03;;;4.90;97.40
43770;BME280;6597;52.218;9.882;2022-12-07T11:11:32;100466.81;;;5.03;97.56
43770;BME280;6597;52.218;9.882;2022-12-07T11:14:05;100473.53;;;5.14;98.32
43770;BME280;6597;52.218;9.882;2022-12-07T11:16:55;100474.88;;;5.37;97.37
43770;BME280;6597;52.218;9.882;2022-12-07T11:19:47;100472.00;;;5.50;95.75
43770;BME280;6597;52.218;9.882;2022-12-07T11:22:22;100470.19;;;5.55;94.15
43770;BME280;6597;52.218;9.882;2022-12-07T11:25:13;100472.97;;;5.45;94.64
43770;BME280;6597;52.218;9.882;2022-12-07T11:27:47;100463.59;;;5.38;95.70
43770;BME280;6597;52.218;9.882;2022-12-07T11:30:18;100463.59;;;5.36;95.75
43770;BME280;6597;52.218;9.882;2022-12-07T11:32:55;100457.72;;;5.26;94.63
43770;BME280;6597;52.218;9.882;2022-12-07T11:35:33;100461.31;;;5.21;94.57
43770;BME280;6597;52.218;9.882;2022-12-07T11:38:09;100454.47;;;5.14;95.14
43770;BME280;6597;52.218;9.882;2022-12-07T11:40:38;100453.78;;;5.04;96.36
43770;BME280;6597;52.218;9.882;2022-12-07T11:43:13;100458.38;;;4.90;97.51
43770;BME280;6597;52.218;9.882;2022-12-07T11:45:43;100454.22;;;4.77;99.45
43770;BME280;6597;52.218;9.882;2022-12-07T11:48:15;100446.56;;;4.69;100.00
43770;BME280;6597;52.218;9.882;2022-12-07T11:50:47;100439.00;;;4.55;100.00
43770;BME280;6597;52.218;9.882;2022-12-07T11:53:19;100440.84;;;4.46;100.00
43770;BME280;6597;52.218;9.882;2022-12-07T11:55:50;100438.38;;;4.38;100.00
43770;BME280;6597;52.218;9.882;2022-12-07T11:58:30;100422.88;;;4.32;100.00
43770;BME280;6597;52.218;9.882;2022-12-07T12:01:11;100437.69;;;4.25;100.00
43770;BME280;6597;52.218;9.882;2022-12-07T12:03:42;100434.25;;;4.25;100.00
43770;BME280;6597;52.218;9.882;2022-12-07T12:06:10;100433.41;;;4.21;100.00
43770;BME280;6597;52.218;9.882;2022-12-07T12:08:43;100437.72;;;4.24;100.00
43770;BME280;6597;52.218;9.882;2022-12-07T12:11:19;100432.53;;;4.21;100.00
43770;BME280;6597;52.218;9.882;2022-12-07T12:17:15;100419.50;;;4.27;100.00
43770;BME280;6597;52.218;9.882;2022-12-07T12:19:59;100422.09;;;4.27;100.00
43770;BME280;6597;52.218;9.882;2022-12-07T12:22:33;100426.50;;;4.19;100.00
43770;BME280;6597;52.218;9.882;2022-12-07T12:25:05;100420.41;;;4.23;100.00
43770;BME280;6597;52.218;9.882;2022-12-07T12:27:34;100424.75;;;4.21;100.00
43770;BME280;6597;52.218;9.882;2022-12-07T12:30:05;100421.25;;;4.25;100.00
43770;BME280;6597;52.218;9.882;2022-12-07T12:32:37;100416.09;;;4.23;100.00
43770;BME280;6597;52.218;9.882;2022-12-07T12:35:27;100419.53;;;4.22;100.00
43770;BME280;6597;52.218;9.882;2022-12-07T12:38:25;100409.19;;;4.19;99.74
43770;BME280;6597;52.218;9.882;2022-12-07T12:40:54;100400.50;;;4.20;100.00
43770;BME280;6597;52.218;9.882;2022-12-07T12:43:40;100406.47;;;4.28;99.83
43770;BME280;6597;52.218;9.882;2022-12-07T12:49:33;100403.44;;;4.57;98.50
43770;BME280;6597;52.218;9.882;2022-12-07T12:52:01;100398.00;;;4.71;97.44
43770;BME280;6597;52.218;9.882;2022-12-07T12:54:58;100401.22;;;4.84;96.43
43770;BME280;6597;52.218;9.882;2022-12-07T12:57:29;100394.00;;;5.01;94.67
43770;BME280;6597;52.218;9.882;2022-12-07T12:59:57;100386.81;;;5.14;94.25
43770;BME280;6597;52.218;9.882;2022-12-07T13:02:26;100384.94;;;5.22;92.84
43770;BME280;6597;52.218;9.882;2022-12-07T13:04:55;100385.78;;;5.24;92.92
43770;BME280;6597;52.218;9.882;2022-12-07T13:07:54;100387.63;;;5.16;92.34
43770;BME280;6597;52.218;9.882;2022-12-07T13:10:36;100389.47;;;5.11;92.39
43770;BME280;6597;52.218;9.882;2022-12-07T13:13:30;100388.69;;;5.07;93.50
43770;BME280;6597;52.218;9.882;2022-12-07T13:18:57;100388.69;;;5.07;93.40
43770;BME280;6597;52.218;9.882;2022-12-07T13:21:42;100397.25;;;5.12;92.87
43770;BME280;6597;52.218;9.882;2022-12-07T13:24:12;100391.16;;;5.13;91.82
43770;BME280;6597;52.218;9.882;2022-12-07T13:26:42;100391.41;;;5.01;91.52
43770;BME280;6597;52.218;9.882;2022-12-07T13:29:13;100387.19;;;4.94;90.70
43770;BME280;6597;52.218;9.882;2022-12-07T13:31:42;100378.56;;;4.92;92.49
43770;BME280;6597;52.218;9.882;2022-12-07T13:34:30;100380.19;;;4.97;92.51